Time;durP1;ratioP1;P1;durP2;ratioP2;P2;SDS_P1;SDS_P2;PMS_P1;PMS_P2;Temp;Humidity;BMP_temperature;BMP_pressure;BME280_temperature;BME280_humidity;BME280_pressure;Samples;Min_cycle;Max_cycle;Signal;HPM_P1;HPM_P2
2022/10/08 00:00:08;;;;;;;0.73;0.63;;;;;;;;;;5111232;28;20054;-85
2022/10/08 00:02:33;;;;;;;1.08;0.52;;;;;;;;;;5095856;28;20093;-85
2022/10/08 00:04:58;;;;;;;0.30;0.30;;;;;;;;;;5096987;28;20429;-85
2022/10/08 00:07:24;;;;;;;0.15;0.15;;;;;;;;;;5093611;28;20061;-84
2022/10/08 00:09:50;;;;;;;0.17;0.17;;;;;;;;;;5109990;28;20024;-86
2022/10/08 00:12:15;;;;;;;0.45;0.45;;;;;;;;;;5113919;28;20020;-85
2022/10/08 00:14:41;;;;;;;0.68;0.68;;;;;;;;;;5096002;28;20062;-86
2022/10/08 00:17:06;;;;;;;0.22;0.20;;;;;;;;;;5096805;28;20123;-85
2022/10/08 00:19:32;;;;;;;0.57;0.35;;;;;;;;;;5094948;28;20034;-85
2022/10/08 00:21:57;;;;;;;0.52;0.28;;;;;;;;;;5095724;28;20059;-85
2022/10/08 00:24:23;;;;;;;1.02;0.63;;;;;;;;;;5095216;28;20120;-86
2022/10/08 00:26:49;;;;;;;2.28;1.00;;;;;;;;;;5096038;28;20120;-84
2022/10/08 00:29:17;;;;;;;0.50;0.43;;;;;;;;;;5090328;28;20446;-83
2022/10/08 00:31:44;;;;;;;0.20;0.20;;;;;;;;;;5091936;28;20110;-86
2022/10/08 00:34:13;;;;;;;0.30;0.30;;;;;;;;;;5112412;28;20368;-84
2022/10/08 00:36:39;;;;;;;0.43;0.40;;;;;;;;;;5104610;28;20364;-84
2022/10/08 00:39:14;;;;;;;0.25;0.25;;;;;;;;;;5092676;28;20045;-84
2022/10/08 00:41:41;;;;;;;1.10;0.47;;;;;;;;;;5113713;28;20114;-87
2022/10/08 00:44:44;;;;;;;0.93;0.52;;;;;;;;;;5093451;28;20481;-85
2022/10/08 00:47:18;;;;;;;0.35;0.30;;;;;;;;;;5113991;28;20019;-84
2022/10/08 00:49:48;;;;;;;0.63;0.40;;;;;;;;;;5095805;28;20387;-84
2022/10/08 00:52:14;;;;;;;0.35;0.25;;;;;;;;;;5092132;28;20460;-83
2022/10/08 00:54:40;;;;;;;1.30;0.60;;;;;;;;;;5112751;28;20089;-85
2022/10/08 00:57:07;;;;;;;1.13;0.60;;;;;;;;;;5114021;28;20468;-83
2022/10/08 00:59:34;;;;;;;0.20;0.20;;;;;;;;;;5095093;28;20084;-84
2022/10/08 01:01:59;;;;;;;0.47;0.28;;;;;;;;;;5092587;28;20024;-85
2022/10/08 01:04:25;;;;;;;0.30;0.30;;;;;;;;;;5094451;28;20031;-84
2022/10/08 01:06:53;;;;;;;0.40;0.40;;;;;;;;;;5094036;28;20038;-85
2022/10/08 01:09:32;;;;;;;0.50;0.43;;;;;;;;;;5095892;28;20093;-85
2022/10/08 01:12:14;;;;;;;0.08;0.08;;;;;;;;;;5094352;28;20069;-85
2022/10/08 01:15:05;;;;;;;0.52;0.52;;;;;;;;;;5092468;28;20061;-84
2022/10/08 01:17:50;;;;;;;0.20;0.20;;;;;;;;;;5094059;28;20027;-85
2022/10/08 01:20:33;;;;;;;1.45;0.50;;;;;;;;;;5110592;28;20039;-84
2022/10/08 01:23:38;;;;;;;1.30;0.73;;;;;;;;;;5111711;28;20030;-85
2022/10/08 01:26:21;;;;;;;0.52;0.47;;;;;;;;;;5092405;28;20016;-85
2022/10/08 01:29:07;;;;;;;1.73;0.95;;;;;;;;;;5091334;28;20035;-85
2022/10/08 01:31:38;;;;;;;0.65;0.60;;;;;;;;;;5108029;28;20111;-82
2022/10/08 01:34:24;;;;;;;1.23;0.63;;;;;;;;;;5113296;28;20031;-85
2022/10/08 01:36:51;;;;;;;0.40;0.40;;;;;;;;;;5110561;28;20020;-85
2022/10/08 01:39:20;;;;;;;0.65;0.60;;;;;;;;;;5094191;28;20402;-87
2022/10/08 01:41:52;;;;;;;0.30;0.30;;;;;;;;;;5092040;28;20034;-83
2022/10/08 01:44:45;;;;;;;0.47;0.47;;;;;;;;;;5111409;28;20055;-86
2022/10/08 01:47:16;;;;;;;0.40;0.40;;;;;;;;;;5112986;28;20023;-85
2022/10/08 01:49:48;;;;;;;0.77;0.75;;;;;;;;;;5094898;28;20031;-84
2022/10/08 01:52:24;;;;;;;1.15;0.95;;;;;;;;;;5094378;28;20019;-85
2022/10/08 01:54:53;;;;;;;0.45;0.45;;;;;;;;;;5094708;28;20027;-86
2022/10/08 01:57:19;;;;;;;0.90;0.57;;;;;;;;;;5111592;28;20024;-85
2022/10/08 01:59:49;;;;;;;1.08;0.85;;;;;;;;;;5094317;28;20030;-85
2022/10/08 02:02:21;;;;;;;0.98;0.77;;;;;;;;;;5110187;28;20058;-85
2022/10/08 02:04:48;;;;;;;0.63;0.50;;;;;;;;;;5092765;28;20027;-85
2022/10/08 02:07:18;;;;;;;0.70;0.70;;;;;;;;;;5094815;28;20031;-86
2022/10/08 02:09:50;;;;;;;0.32;0.32;;;;;;;;;;5094616;28;20019;-86
2022/10/08 02:12:16;;;;;;;0.50;0.50;;;;;;;;;;5094402;28;20045;-86
2022/10/08 02:14:51;;;;;;;0.63;0.63;;;;;;;;;;5091886;28;20487;-87
2022/10/08 02:17:39;;;;;;;6.32;1.00;;;;;;;;;;5109896;28;20019;-85
2022/10/08 02:20:14;;;;;;;0.70;0.70;;;;;;;;;;5111757;28;20050;-85
2022/10/08 02:23:04;;;;;;;0.38;0.38;;;;;;;;;;5092928;28;20487;-83
2022/10/08 02:25:37;;;;;;;0.35;0.35;;;;;;;;;;5091911;28;20024;-85
2022/10/08 02:28:19;;;;;;;0.63;0.63;;;;;;;;;;5110703;28;20069;-84
2022/10/08 02:30:54;;;;;;;0.43;0.43;;;;;;;;;;5111258;28;20357;-86
2022/10/08 02:33:46;;;;;;;0.82;0.70;;;;;;;;;;5107878;28;20049;-85
2022/10/08 02:36:18;;;;;;;2.08;0.75;;;;;;;;;;5108648;28;20558;-84
2022/10/08 02:38:51;;;;;;;0.93;0.55;;;;;;;;;;5093763;28;20023;-84
2022/10/08 02:41:19;;;;;;;0.80;0.63;;;;;;;;;;5109976;28;20111;-82
2022/10/08 02:43:47;;;;;;;0.85;0.85;;;;;;;;;;5111897;28;20031;-85
2022/10/08 02:46:16;;;;;;;0.60;0.60;;;;;;;;;;5092301;28;20085;-84
2022/10/08 02:48:58;;;;;;;0.55;0.50;;;;;;;;;;5110497;28;20035;-85
2022/10/08 02:51:26;;;;;;;0.55;0.52;;;;;;;;;;5111531;28;20031;-85
2022/10/08 02:53:52;;;;;;;0.45;0.40;;;;;;;;;;5092768;28;20107;-84
2022/10/08 02:56:26;;;;;;;1.33;1.00;;;;;;;;;;5112071;28;20440;-84
2022/10/08 02:58:52;;;;;;;1.17;0.80;;;;;;;;;;5092240;28;20027;-84
2022/10/08 03:01:38;;;;;;;1.02;0.93;;;;;;;;;;5111883;28;20042;-85
2022/10/08 03:04:11;;;;;;;0.40;0.40;;;;;;;;;;5092998;28;20028;-84
2022/10/08 03:06:38;;;;;;;0.57;0.50;;;;;;;;;;5092945;28;20020;-84
2022/10/08 03:09:06;;;;;;;1.23;1.02;;;;;;;;;;5112059;28;20027;-83
2022/10/08 03:11:32;;;;;;;0.85;0.73;;;;;;;;;;5111473;28;20028;-84
2022/10/08 03:14:02;;;;;;;1.42;0.85;;;;;;;;;;5091358;28;20016;-85
2022/10/08 03:16:38;;;;;;;0.47;0.47;;;;;;;;;;5112038;28;20364;-84
2022/10/08 03:19:03;;;;;;;1.20;0.70;;;;;;;;;;5091047;28;20492;-84
2022/10/08 03:21:30;;;;;;;0.55;0.40;;;;;;;;;;5092374;28;20132;-86
2022/10/08 03:23:55;;;;;;;2.38;1.00;;;;;;;;;;5111644;28;20080;-84
2022/10/08 03:26:21;;;;;;;1.10;1.00;;;;;;;;;;5110677;28;20472;-85
2022/10/08 03:28:46;;;;;;;1.23;1.13;;;;;;;;;;5093135;28;20027;-85
2022/10/08 03:31:11;;;;;;;0.73;0.43;;;;;;;;;;5103795;28;20050;-87
2022/10/08 03:33:37;;;;;;;1.15;0.90;;;;;;;;;;5088892;28;20019;-83
2022/10/08 03:36:03;;;;;;;0.50;0.50;;;;;;;;;;5110373;28;20051;-84
2022/10/08 03:38:28;;;;;;;0.95;0.82;;;;;;;;;;5089885;28;20027;-84
2022/10/08 03:40:56;;;;;;;1.38;0.98;;;;;;;;;;5107438;28;20023;-84
2022/10/08 03:43:22;;;;;;;1.45;1.25;;;;;;;;;;5091210;28;20035;-85
2022/10/08 03:45:52;;;;;;;0.45;0.45;;;;;;;;;;5110129;28;20038;-84
2022/10/08 03:48:18;;;;;;;;;;;;;;;;;;5113973;28;20019;-85
2022/10/08 03:50:58;;;;;;;0.47;0.40;;;;;;;;;;5096837;28;19912;-85
2022/10/08 03:53:25;;;;;;;1.92;1.05;;;;;;;;;;5094455;28;20498;-84
2022/10/08 03:55:50;;;;;;;0.63;0.63;;;;;;;;;;5094868;28;20038;-84
2022/10/08 03:58:17;;;;;;;0.93;0.60;;;;;;;;;;5117819;27;20023;-85
2022/10/08 04:00:42;;;;;;;0.75;0.60;;;;;;;;;;5115005;28;20019;-84
2022/10/08 04:03:08;;;;;;;4.88;0.90;;;;;;;;;;5096711;28;20074;-84
2022/10/08 04:05:34;;;;;;;0.80;0.80;;;;;;;;;;5096883;28;20084;-84
2022/10/08 04:07:59;;;;;;;0.40;0.40;;;;;;;;;;5095298;28;20459;-84
2022/10/08 04:10:25;;;;;;;1.05;0.93;;;;;;;;;;5111873;28;20066;-84
2022/10/08 04:12:50;;;;;;;1.23;0.90;;;;;;;;;;5094766;28;20372;-84
2022/10/08 04:15:16;;;;;;;1.13;1.05;;;;;;;;;;5096102;28;20491;-84
2022/10/08 04:17:42;;;;;;;0.98;0.82;;;;;;;;;;5113616;28;20501;-86
2022/10/08 04:20:07;;;;;;;1.17;0.95;;;;;;;;;;5094624;28;20051;-84
2022/10/08 04:22:34;;;;;;;0.80;0.57;;;;;;;;;;5113540;27;20546;-85
2022/10/08 04:24:59;;;;;;;1.45;1.33;;;;;;;;;;5095284;28;20479;-83
2022/10/08 04:27:25;;;;;;;1.33;1.02;;;;;;;;;;5095642;28;20061;-84
2022/10/08 04:29:50;;;;;;;2.83;1.17;;;;;;;;;;5113809;28;20100;-84
2022/10/08 04:32:16;;;;;;;1.23;1.00;;;;;;;;;;5111664;28;20437;-84
2022/10/08 04:34:42;;;;;;;0.85;0.80;;;;;;;;;;5092392;28;20024;-85
2022/10/08 04:37:07;;;;;;;1.42;1.05;;;;;;;;;;5092429;28;20031;-84
2022/10/08 04:39:32;;;;;;;0.80;0.77;;;;;;;;;;5092982;28;20107;-82
2022/10/08 04:41:58;;;;;;;0.55;0.50;;;;;;;;;;5109671;28;20034;-82
2022/10/08 04:44:23;;;;;;;1.95;1.13;;;;;;;;;;5110066;28;20045;-81
2022/10/08 04:46:49;;;;;;;1.63;1.38;;;;;;;;;;5114180;28;20510;-85
2022/10/08 04:49:14;;;;;;;1.27;1.10;;;;;;;;;;5110322;28;20028;-83
2022/10/08 04:51:39;;;;;;;0.95;0.95;;;;;;;;;;5113539;28;20027;-84
2022/10/08 04:54:05;;;;;;;0.93;0.70;;;;;;;;;;5093538;28;20049;-85
2022/10/08 04:56:34;;;;;;;2.55;0.98;;;;;;;;;;5092008;28;20020;-84
2022/10/08 04:58:59;;;;;;;1.13;1.02;;;;;;;;;;5108764;28;20417;-84
2022/10/08 05:01:26;;;;;;;0.93;0.77;;;;;;;;;;5107344;28;20020;-84
2022/10/08 05:03:54;;;;;;;0.82;0.75;;;;;;;;;;5106999;28;20103;-84
2022/10/08 05:06:22;;;;;;;1.80;1.40;;;;;;;;;;5093490;28;20027;-83
2022/10/08 05:08:48;;;;;;;1.70;1.15;;;;;;;;;;5109186;28;20028;-84
2022/10/08 05:11:15;;;;;;;0.82;0.75;;;;;;;;;;5109993;28;20490;-84
2022/10/08 05:13:41;;;;;;;2.85;0.88;;;;;;;;;;5112292;28;20024;-84
2022/10/08 05:16:09;;;;;;;1.80;1.30;;;;;;;;;;5090741;28;20034;-83
2022/10/08 05:18:35;;;;;;;1.38;1.27;;;;;;;;;;5093236;28;20051;-85
2022/10/08 05:21:05;;;;;;;1.85;1.42;;;;;;;;;;5108430;28;20491;-84
2022/10/08 05:23:31;;;;;;;;;;;;;;;;;;5108203;28;20479;-83
2022/10/08 05:25:57;;;;;;;1.17;1.05;;;;;;;;;;5093336;28;19930;-83
2022/10/08 05:28:22;;;;;;;1.27;1.15;;;;;;;;;;5110368;28;20028;-82
2022/10/08 05:30:47;;;;;;;0.77;0.75;;;;;;;;;;5092419;28;20540;-83
2022/10/08 05:33:13;;;;;;;0.75;0.75;;;;;;;;;;5094567;28;20029;-82
2022/10/08 05:35:38;;;;;;;0.73;0.68;;;;;;;;;;5090700;28;20058;-84
2022/10/08 05:38:04;;;;;;;0.47;0.45;;;;;;;;;;5110475;28;20059;-81
2022/10/08 05:40:29;;;;;;;1.10;1.00;;;;;;;;;;5110626;28;20413;-83
2022/10/08 05:42:55;;;;;;;1.65;1.30;;;;;;;;;;5090675;28;20031;-83
2022/10/08 05:45:22;;;;;;;2.20;1.08;;;;;;;;;;5111788;27;20019;-81
2022/10/08 05:47:47;;;;;;;1.92;1.58;;;;;;;;;;5112627;28;20411;-85
2022/10/08 05:50:13;;;;;;;1.23;1.13;;;;;;;;;;5111039;28;20023;-84
2022/10/08 05:52:38;;;;;;;1.33;1.23;;;;;;;;;;5093572;28;20051;-84
2022/10/08 05:55:05;;;;;;;2.60;1.55;;;;;;;;;;5109313;28;20490;-83
2022/10/08 05:57:30;;;;;;;3.65;2.45;;;;;;;;;;5110443;28;20031;-84
2022/10/08 05:59:56;;;;;;;1.10;1.05;;;;;;;;;;5111277;28;20111;-84
2022/10/08 06:02:24;;;;;;;2.08;1.88;;;;;;;;;;5109921;28;20476;-83
2022/10/08 06:04:49;;;;;;;2.72;1.92;;;;;;;;;;5091857;28;20035;-84
2022/10/08 06:07:15;;;;;;;1.20;1.10;;;;;;;;;;5093903;28;20028;-83
2022/10/08 06:09:41;;;;;;;1.55;1.23;;;;;;;;;;5105197;28;20035;-85
2022/10/08 06:12:08;;;;;;;1.88;1.50;;;;;;;;;;5102275;28;20467;-83
2022/10/08 06:14:34;;;;;;;1.15;1.05;;;;;;;;;;5107429;28;20443;-84
2022/10/08 06:17:00;;;;;;;1.38;1.20;;;;;;;;;;5111826;28;20110;-83
2022/10/08 06:19:25;;;;;;;1.58;1.23;;;;;;;;;;5092998;28;20027;-83
2022/10/08 06:21:50;;;;;;;1.73;1.58;;;;;;;;;;5105665;28;20051;-86
2022/10/08 06:24:16;;;;;;;1.63;1.15;;;;;;;;;;5107506;28;20510;-85
2022/10/08 06:26:43;;;;;;;1.77;1.63;;;;;;;;;;5092260;28;20032;-83
2022/10/08 06:29:16;;;;;;;2.85;1.75;;;;;;;;;;5110116;28;20011;-85
2022/10/08 06:31:43;;;;;;;1.02;0.98;;;;;;;;;;5107290;28;20543;-84
2022/10/08 06:34:08;;;;;;;1.45;1.30;;;;;;;;;;5090715;28;20043;-85
2022/10/08 06:36:36;;;;;;;4.03;2.35;;;;;;;;;;5088169;28;20066;-84
2022/10/08 06:39:08;;;;;;;2.30;1.17;;;;;;;;;;5091761;28;20423;-84
2022/10/08 06:41:34;;;;;;;3.78;2.40;;;;;;;;;;5091074;28;20031;-82
2022/10/08 06:44:04;;;;;;;1.63;1.33;;;;;;;;;;5106629;28;20531;-84
2022/10/08 06:46:31;;;;;;;2.28;1.38;;;;;;;;;;5091646;28;20426;-84
2022/10/08 06:48:59;;;;;;;2.10;1.75;;;;;;;;;;5093107;28;20031;-83
2022/10/08 06:51:25;;;;;;;2.55;2.03;;;;;;;;;;5091157;28;20395;-84
2022/10/08 06:53:56;;;;;;;2.47;1.65;;;;;;;;;;5108550;28;20027;-83
2022/10/08 06:56:23;;;;;;;2.38;1.90;;;;;;;;;;5107909;28;20019;-86
2022/10/08 06:58:49;;;;;;;1.90;1.55;;;;;;;;;;5112436;28;20023;-83
2022/10/08 07:01:17;;;;;;;2.00;1.58;;;;;;;;;;5102103;28;20027;-84
2022/10/08 07:03:42;;;;;;;11.63;5.75;;;;;;;;;;5090220;28;20030;-86
2022/10/08 07:06:10;;;;;;;12.13;7.03;;;;;;;;;;5105723;28;20031;-84
2022/10/08 07:08:36;;;;;;;6.07;3.97;;;;;;;;;;5109613;28;20039;-86
2022/10/08 07:11:14;;;;;;;3.63;2.17;;;;;;;;;;5095391;28;20386;-83
2022/10/08 07:13:39;;;;;;;4.03;2.67;;;;;;;;;;5111676;28;20061;-84
2022/10/08 07:16:10;;;;;;;2.67;2.20;;;;;;;;;;5090694;28;20035;-82
2022/10/08 07:18:37;;;;;;;2.22;1.70;;;;;;;;;;5091760;28;20035;-86
2022/10/08 07:21:03;;;;;;;3.97;2.20;;;;;;;;;;5105071;28;20124;-85
2022/10/08 07:23:29;;;;;;;2.67;2.25;;;;;;;;;;5107781;28;20030;-84
2022/10/08 07:25:59;;;;;;;6.55;2.40;;;;;;;;;;5111577;28;20024;-84
2022/10/08 07:28:28;;;;;;;3.55;2.83;;;;;;;;;;5112619;28;20019;-83
2022/10/08 07:30:53;;;;;;;5.88;2.97;;;;;;;;;;5108293;28;20107;-83
2022/10/08 07:33:19;;;;;;;5.35;2.80;;;;;;;;;;5112882;28;20148;-83
2022/10/08 07:35:45;;;;;;;4.25;2.22;;;;;;;;;;5097061;28;20019;-88
2022/10/08 07:38:10;;;;;;;2.67;1.98;;;;;;;;;;5112622;28;20024;-87
2022/10/08 07:40:36;;;;;;;4.07;2.53;;;;;;;;;;5116064;28;20483;-88
2022/10/08 07:43:03;;;;;;;2.20;1.67;;;;;;;;;;5115818;28;20028;-87
2022/10/08 07:45:29;;;;;;;3.17;2.28;;;;;;;;;;5097297;28;20020;-88
2022/10/08 07:47:55;;;;;;;2.95;1.92;;;;;;;;;;5116266;28;20027;-88
2022/10/08 07:50:21;;;;;;;2.47;1.73;;;;;;;;;;5116002;28;20042;-87
2022/10/08 07:52:47;;;;;;;5.00;2.53;;;;;;;;;;5096356;28;20469;-89
2022/10/08 07:55:12;;;;;;;5.15;2.70;;;;;;;;;;5116198;28;20044;-89
2022/10/08 07:57:37;;;;;;;3.38;1.90;;;;;;;;;;5116022;28;20027;-87
2022/10/08 08:00:03;;;;;;;2.13;1.77;;;;;;;;;;5097743;28;20102;-86
2022/10/08 08:02:29;;;;;;;10.30;1.80;;;;;;;;;;5116206;27;20108;-86
2022/10/08 08:04:54;;;;;;;2.08;1.77;;;;;;;;;;5096960;28;20041;-87
2022/10/08 08:07:20;;;;;;;1.42;1.33;;;;;;;;;;5096735;28;20459;-87
2022/10/08 08:09:45;;;;;;;3.42;1.90;;;;;;;;;;5114751;28;20043;-88
2022/10/08 08:12:11;;;;;;;1.92;1.52;;;;;;;;;;5094415;28;20023;-87
2022/10/08 08:14:36;;;;;;;1.55;1.27;;;;;;;;;;5113888;28;20080;-86
2022/10/08 08:17:02;;;;;;;3.25;2.05;;;;;;;;;;5115135;28;20023;-87
2022/10/08 08:19:27;;;;;;;2.33;2.00;;;;;;;;;;5115538;28;20111;-85
2022/10/08 08:21:52;;;;;;;1.83;1.42;;;;;;;;;;5097914;28;20044;-89
2022/10/08 08:24:22;;;;;;;1.65;1.55;;;;;;;;;;5096702;28;20433;-89
2022/10/08 08:26:52;;;;;;;2.60;1.75;;;;;;;;;;5097264;28;20066;-86
2022/10/08 08:29:18;;;;;;;1.42;0.82;;;;;;;;;;5096428;28;20050;-87
2022/10/08 08:31:45;;;;;;;2.45;1.77;;;;;;;;;;5095574;28;20483;-89
2022/10/08 08:34:16;;;;;;;2.00;1.55;;;;;;;;;;5095979;28;20023;-90
2022/10/08 08:36:44;;;;;;;1.92;1.73;;;;;;;;;;5091434;28;20023;-88
2022/10/08 08:39:34;;;;;;;1.60;1.33;;;;;;;;;;5114340;28;20016;-87
2022/10/08 08:42:02;;;;;;;1.80;1.45;;;;;;;;;;5091802;28;20114;-87
2022/10/08 08:44:38;;;;;;;3.35;1.75;;;;;;;;;;5095579;28;20093;-88
2022/10/08 08:47:06;;;;;;;2.55;1.15;;;;;;;;;;5114020;28;20477;-89
2022/10/08 08:49:44;;;;;;;1.23;1.00;;;;;;;;;;5096302;28;20050;-85
2022/10/08 08:52:13;;;;;;;2.08;1.73;;;;;;;;;;5095767;28;20050;-89
2022/10/08 08:54:39;;;;;;;1.58;1.30;;;;;;;;;;5095306;28;20031;-87
2022/10/08 08:57:35;;;;;;;1.77;1.08;;;;;;;;;;5114449;28;20081;-89
2022/10/08 09:00:06;;;;;;;1.88;1.02;;;;;;;;;;5097751;28;20410;-85
2022/10/08 09:02:37;;;;;;;1.88;1.30;;;;;;;;;;5096070;28;20015;-87
2022/10/08 09:05:10;;;;;;;1.77;1.30;;;;;;;;;;5093333;28;20036;-84
2022/10/08 09:07:45;;;;;;;1.67;1.42;;;;;;;;;;5113999;28;20016;-86
2022/10/08 09:10:17;;;;;;;2.35;1.25;;;;;;;;;;5095819;28;20020;-87
2022/10/08 09:12:42;;;;;;;2.50;1.38;;;;;;;;;;5093874;28;20019;-87
2022/10/08 09:15:22;;;;;;;1.20;1.00;;;;;;;;;;5095254;28;20444;-86
2022/10/08 09:17:53;;;;;;;2.05;1.27;;;;;;;;;;5112502;27;20028;-86
2022/10/08 09:20:24;;;;;;;1.10;1.00;;;;;;;;;;5092880;28;20051;-85
2022/10/08 09:22:52;;;;;;;1.58;1.13;;;;;;;;;;5111450;28;20081;-86
2022/10/08 09:25:30;;;;;;;0.68;0.68;;;;;;;;;;5112180;28;20069;-87
2022/10/08 09:28:02;;;;;;;1.05;0.95;;;;;;;;;;5110498;28;20049;-87
2022/10/08 09:30:33;;;;;;;1.40;1.15;;;;;;;;;;5090746;28;20035;-86
2022/10/08 09:33:28;;;;;;;2.40;1.42;;;;;;;;;;5092991;28;20019;-85
2022/10/08 09:35:54;;;;;;;2.22;1.35;;;;;;;;;;5083896;28;20066;-85
2022/10/08 09:38:28;;;;;;;1.10;0.95;;;;;;;;;;5113003;28;20059;-85
2022/10/08 09:41:16;;;;;;;1.95;1.02;;;;;;;;;;5095136;28;20027;-87
2022/10/08 09:43:43;;;;;;;2.88;1.77;;;;;;;;;;5111115;28;20112;-86
2022/10/08 09:46:27;;;;;;;2.45;1.73;;;;;;;;;;5113995;28;20098;-88
2022/10/08 09:48:53;;;;;;;0.77;0.77;;;;;;;;;;5112202;28;20023;-86
2022/10/08 09:51:18;;;;;;;1.52;1.17;;;;;;;;;;5097690;28;20027;-90
2022/10/08 09:53:57;;;;;;;1.48;1.13;;;;;;;;;;5095863;28;20138;-87
2022/10/08 09:56:29;;;;;;;2.17;1.30;;;;;;;;;;5094239;28;20031;-86
2022/10/08 09:59:01;;;;;;;1.73;1.10;;;;;;;;;;5093537;28;20023;-87
2022/10/08 10:01:30;;;;;;;1.20;1.08;;;;;;;;;;5113571;28;20027;-84
2022/10/08 10:04:00;;;;;;;1.73;1.42;;;;;;;;;;5094532;28;20020;-88
2022/10/08 10:06:38;;;;;;;2.47;1.13;;;;;;;;;;5094955;28;20077;-84
2022/10/08 10:09:09;;;;;;;0.98;0.90;;;;;;;;;;5094922;28;20047;-85
2022/10/08 10:11:46;;;;;;;0.73;0.73;;;;;;;;;;5093285;28;20042;-84
2022/10/08 10:14:44;;;;;;;1.00;0.80;;;;;;;;;;5091032;28;20019;-84
2022/10/08 10:17:30;;;;;;;2.05;1.40;;;;;;;;;;5067523;28;20119;-85
2022/10/08 10:20:03;;;;;;;1.35;1.02;;;;;;;;;;5093127;28;20039;-87
2022/10/08 10:22:45;;;;;;;1.25;1.15;;;;;;;;;;5093258;28;20535;-86
2022/10/08 10:25:43;;;;;;;1.05;0.82;;;;;;;;;;5105192;28;20056;-87
2022/10/08 10:28:14;;;;;;;0.85;0.80;;;;;;;;;;5109799;28;20467;-85
2022/10/08 10:30:58;;;;;;;1.45;0.93;;;;;;;;;;5109264;28;20023;-85
2022/10/08 10:33:27;;;;;;;2.05;1.20;;;;;;;;;;5109503;28;20028;-86
2022/10/08 10:35:56;;;;;;;1.77;1.13;;;;;;;;;;5110804;28;20028;-86
2022/10/08 10:38:31;;;;;;;2.17;0.93;;;;;;;;;;5111390;28;20034;-86
2022/10/08 10:41:13;;;;;;;1.23;1.00;;;;;;;;;;5109986;28;20359;-87
2022/10/08 10:43:48;;;;;;;1.70;1.20;;;;;;;;;;5087272;28;20020;-84
2022/10/08 10:46:16;;;;;;;2.67;1.33;;;;;;;;;;5094154;28;20050;-85
2022/10/08 10:48:42;;;;;;;1.63;1.27;;;;;;;;;;5112938;28;20395;-85
2022/10/08 10:51:29;;;;;;;1.85;1.13;;;;;;;;;;5112679;28;20024;-85
2022/10/08 10:54:19;;;;;;;1.35;0.93;;;;;;;;;;5093467;28;20020;-85
2022/10/08 10:56:56;;;;;;;1.30;1.00;;;;;;;;;;5111092;28;20055;-86
2022/10/08 10:59:22;;;;;;;0.82;0.80;;;;;;;;;;5096650;28;20028;-85
2022/10/08 11:02:02;;;;;;;1.88;1.33;;;;;;;;;;5116247;28;20073;-86
2022/10/08 11:04:53;;;;;;;;;;;;;;;;;;5096669;28;20024;-86
2022/10/08 11:07:33;;;;;;;2.40;1.02;;;;;;;;;;5095171;28;19951;-86
2022/10/08 11:10:08;;;;;;;1.27;0.95;;;;;;;;;;5114574;28;20023;-86
2022/10/08 11:13:02;;;;;;;3.42;1.00;;;;;;;;;;5096236;28;20028;-87
2022/10/08 11:16:03;;;;;;;1.90;1.05;;;;;;;;;;5114229;28;20467;-84
2022/10/08 11:18:53;;;;;;;0.68;0.63;;;;;;;;;;5027045;28;20021;-86
2022/10/08 11:21:21;;;;;;;;;;;;;;;;;;5111176;28;20079;-90
2022/10/08 11:23:56;;;;;;;7.90;1.30;;;;;;;;;;5095949;28;19972;-85
2022/10/08 11:26:37;;;;;;;1.10;1.00;;;;;;;;;;5114756;28;20024;-87
2022/10/08 11:29:32;;;;;;;1.10;0.80;;;;;;;;;;5111949;28;20023;-85
2022/10/08 11:31:59;;;;;;;1.35;1.00;;;;;;;;;;5117607;28;20042;-84
2022/10/08 11:34:31;;;;;;;1.95;1.00;;;;;;;;;;5119627;28;20356;-86
2022/10/08 11:37:15;;;;;;;1.55;1.17;;;;;;;;;;5095260;28;20023;-84
2022/10/08 11:39:46;;;;;;;1.92;1.10;;;;;;;;;;5111232;28;20540;-87
2022/10/08 11:42:48;;;;;;;1.73;0.93;;;;;;;;;;5093440;28;20080;-84
2022/10/08 11:45:22;;;;;;;0.98;0.75;;;;;;;;;;5101241;28;20063;-85
2022/10/08 11:47:53;;;;;;;1.65;1.13;;;;;;;;;;5113937;28;20059;-85
2022/10/08 11:50:23;;;;;;;3.28;1.63;;;;;;;;;;5091994;28;20047;-83
2022/10/08 11:52:50;;;;;;;1.13;1.02;;;;;;;;;;5094033;28;20534;-87
2022/10/08 11:55:31;;;;;;;1.95;1.05;;;;;;;;;;5105426;28;20055;-83
2022/10/08 11:58:02;;;;;;;2.13;1.25;;;;;;;;;;5093077;28;20027;-83
2022/10/08 12:00:35;;;;;;;2.00;1.67;;;;;;;;;;5111079;28;20540;-85
2022/10/08 12:03:18;;;;;;;2.58;1.63;;;;;;;;;;5111929;28;20033;-83
2022/10/08 12:05:50;;;;;;;1.42;1.00;;;;;;;;;;5109834;28;20027;-83
2022/10/08 12:08:52;;;;;;;1.35;1.05;;;;;;;;;;5110142;28;20019;-85
2022/10/08 12:11:30;;;;;;;2.25;1.75;;;;;;;;;;5092967;28;20429;-84
2022/10/08 12:14:11;;;;;;;1.42;0.90;;;;;;;;;;5114525;28;20026;-87
2022/10/08 12:16:52;;;;;;;1.65;1.13;;;;;;;;;;5095251;28;20046;-84
2022/10/08 12:19:33;;;;;;;1.08;0.90;;;;;;;;;;5109847;28;20016;-84
2022/10/08 12:22:01;;;;;;;2.10;1.13;;;;;;;;;;5108997;28;20039;-85
2022/10/08 12:24:35;;;;;;;1.38;1.10;;;;;;;;;;5111658;28;20027;-88
2022/10/08 12:27:16;;;;;;;1.40;1.00;;;;;;;;;;5096608;28;20165;-85
2022/10/08 12:29:57;;;;;;;1.98;1.10;;;;;;;;;;5090216;28;20023;-85
2022/10/08 12:32:50;;;;;;;1.45;1.13;;;;;;;;;;5096005;28;20058;-86
2022/10/08 12:35:32;;;;;;;1.83;1.30;;;;;;;;;;5094455;28;20023;-87
2022/10/08 12:38:15;;;;;;;1.98;1.23;;;;;;;;;;5110563;28;20383;-88
2022/10/08 12:40:43;;;;;;;1.20;0.95;;;;;;;;;;5109402;28;20055;-83
2022/10/08 12:43:23;;;;;;;1.58;1.02;;;;;;;;;;5112801;28;20103;-85
2022/10/08 12:46:36;;;;;;;1.60;1.25;;;;;;;;;;5093438;28;20035;-84
2022/10/08 12:49:04;;;;;;;2.53;1.23;;;;;;;;;;5037612;28;20047;-89
2022/10/08 12:51:44;;;;;;;1.67;1.20;;;;;;;;;;5114180;28;20063;-86
2022/10/08 12:54:22;;;;;;;1.10;1.00;;;;;;;;;;5093683;28;20377;-88
2022/10/08 12:56:50;;;;;;;2.72;1.35;;;;;;;;;;5094706;28;20024;-88
2022/10/08 12:59:17;;;;;;;1.55;1.10;;;;;;;;;;5114009;28;20023;-85
2022/10/08 13:01:43;;;;;;;1.70;1.27;;;;;;;;;;5111570;28;20615;-87
2022/10/08 13:04:24;;;;;;;1.55;1.30;;;;;;;;;;5113265;28;20011;-86
2022/10/08 13:06:52;;;;;;;2.15;1.42;;;;;;;;;;5114054;28;20085;-87
2022/10/08 13:09:25;;;;;;;1.27;1.17;;;;;;;;;;5112078;28;20023;-85
2022/10/08 13:11:53;;;;;;;1.55;1.27;;;;;;;;;;5112175;28;20095;-86
2022/10/08 13:14:44;;;;;;;1.73;1.45;;;;;;;;;;5111880;28;20015;-86
2022/10/08 13:17:28;;;;;;;1.70;1.23;;;;;;;;;;5109554;28;20027;-87
2022/10/08 13:20:23;;;;;;;2.25;1.38;;;;;;;;;;5093100;28;20076;-86
2022/10/08 13:22:49;;;;;;;5.30;1.67;;;;;;;;;;5093647;28;20036;-84
2022/10/08 13:25:38;;;;;;;1.48;1.10;;;;;;;;;;5111470;28;20031;-90
2022/10/08 13:28:09;;;;;;;2.30;1.40;;;;;;;;;;5094665;28;20345;-86
2022/10/08 13:30:35;;;;;;;1.65;1.38;;;;;;;;;;5110382;28;20030;-86
2022/10/08 13:33:09;;;;;;;2.38;1.40;;;;;;;;;;5113934;28;20023;-86
2022/10/08 13:35:34;;;;;;;3.45;2.05;;;;;;;;;;5114116;28;20051;-85
2022/10/08 13:38:05;;;;;;;3.58;2.10;;;;;;;;;;5094632;28;21364;-87
2022/10/08 13:40:30;;;;;;;1.83;1.45;;;;;;;;;;5092776;28;20034;-87
2022/10/08 13:42:59;;;;;;;1.73;1.52;;;;;;;;;;5114867;27;20024;-86
2022/10/08 13:45:28;;;;;;;2.47;1.85;;;;;;;;;;5093646;28;20028;-86
2022/10/08 13:47:53;;;;;;;3.08;1.45;;;;;;;;;;5113657;28;20796;-86
2022/10/08 13:50:20;;;;;;;1.85;1.50;;;;;;;;;;5113771;28;20031;-85
2022/10/08 13:52:52;;;;;;;3.22;1.60;;;;;;;;;;5094757;28;20328;-87
2022/10/08 13:55:32;;;;;;;1.75;1.40;;;;;;;;;;5093713;28;20019;-86
2022/10/08 13:58:03;;;;;;;1.83;1.50;;;;;;;;;;5110927;28;20023;-88
2022/10/08 14:00:30;;;;;;;2.67;1.58;;;;;;;;;;5113362;28;20055;-85
2022/10/08 14:02:56;;;;;;;1.80;1.63;;;;;;;;;;5113381;28;20027;-84
2022/10/08 14:05:22;;;;;;;2.85;1.73;;;;;;;;;;5113013;28;20030;-87
2022/10/08 14:07:52;;;;;;;2.92;1.85;;;;;;;;;;5110879;28;20039;-86
2022/10/08 14:10:18;;;;;;;2.72;1.60;;;;;;;;;;5093428;28;20027;-86
2022/10/08 14:12:44;;;;;;;2.22;1.70;;;;;;;;;;5093172;28;20158;-85
2022/10/08 14:15:15;;;;;;;2.15;1.35;;;;;;;;;;5113311;28;20030;-85
2022/10/08 14:17:40;;;;;;;1.20;1.08;;;;;;;;;;5094831;28;20038;-86
2022/10/08 14:20:07;;;;;;;1.25;1.13;;;;;;;;;;5094697;28;20047;-85
2022/10/08 14:22:37;;;;;;;2.42;1.35;;;;;;;;;;5111728;28;20110;-86
2022/10/08 14:25:30;;;;;;;2.65;1.73;;;;;;;;;;5112593;28;20493;-85
2022/10/08 14:27:57;;;;;;;2.13;1.73;;;;;;;;;;5111554;28;20412;-85
2022/10/08 14:30:23;;;;;;;1.38;1.27;;;;;;;;;;5111860;28;20128;-84
2022/10/08 14:32:48;;;;;;;1.75;1.25;;;;;;;;;;5112072;28;20020;-84
2022/10/08 14:35:14;;;;;;;1.73;1.45;;;;;;;;;;5111901;28;20424;-84
2022/10/08 14:37:39;;;;;;;0.80;0.80;;;;;;;;;;5111708;28;20023;-85
2022/10/08 14:40:07;;;;;;;1.25;1.08;;;;;;;;;;5093875;28;20051;-84
2022/10/08 14:42:33;;;;;;;1.38;1.25;;;;;;;;;;5091403;28;20055;-83
2022/10/08 14:44:58;;;;;;;1.35;1.20;;;;;;;;;;5094053;28;20073;-84
2022/10/08 14:47:23;;;;;;;1.75;1.27;;;;;;;;;;5093505;28;20023;-85
2022/10/08 14:49:49;;;;;;;1.20;1.00;;;;;;;;;;5109024;28;20028;-84
2022/10/08 14:52:14;;;;;;;2.53;2.10;;;;;;;;;;5111661;28;20031;-84
2022/10/08 14:54:40;;;;;;;1.85;1.15;;;;;;;;;;5112190;28;20100;-84
2022/10/08 14:57:05;;;;;;;1.50;1.10;;;;;;;;;;5112428;28;20379;-83
2022/10/08 14:59:31;;;;;;;1.77;1.00;;;;;;;;;;5093930;28;20030;-84
2022/10/08 15:01:56;;;;;;;0.93;0.80;;;;;;;;;;5109436;28;20023;-85
2022/10/08 15:04:22;;;;;;;0.52;0.50;;;;;;;;;;5111809;28;20024;-84
2022/10/08 15:06:47;;;;;;;1.52;1.20;;;;;;;;;;5093852;28;20031;-84